Terminal Aerodrome Forecast
Issued by NWS

Home | Current Version | Previous Version | Text Only | Print | Product List | Glossary On
Versions: 1 2 3 4 5 6 7 8 9 10 11 12
244
FTUS44 KJAN 211720
TAFHKS
TAF
KHKS 211720Z 2118/2218 36005KT P6SM SCT045
     FM212100 07005KT P6SM VCTS SCT050CB BKN100
     FM220000 14003KT P6SM FEW050 FEW100=

USA.gov is the U.S. government's official web portal to all federal, state and local government web resources and services.